Time;durP1;ratioP1;P1;durP2;ratioP2;P2;SDS_P1;SDS_P2;PMS_P1;PMS_P2;Temp;Humidity;BMP_temperature;BMP_pressure;BME280_temperature;BME280_humidity;BME280_pressure;Samples;Min_cycle;Max_cycle;Signal;HPM_P1;HPM_P2
2021/05/25 00:02:23;;;;;;;0.63;0.50;;;10.30;99.90;;;;;;5076544;28;20016;-74
2021/05/25 00:04:49;;;;;;;0.30;0.30;;;10.10;99.90;;;;;;5094446;28;20031;-74
2021/05/25 00:07:15;;;;;;;0.52;0.52;;;10.10;99.90;;;;;;5076396;28;20455;-74
2021/05/25 00:09:41;;;;;;;0.30;0.30;;;10.00;99.90;;;;;;5075856;28;20048;-73
2021/05/25 00:12:07;;;;;;;0.28;0.28;;;9.90;99.90;;;;;;5094395;28;20095;-73
2021/05/25 00:14:34;;;;;;;0.10;0.10;;;10.00;99.90;;;;;;5076096;28;20084;-74
2021/05/25 00:17:00;;;;;;;0.10;0.10;;;10.00;99.90;;;;;;5094637;28;20024;-74
2021/05/25 00:19:26;;;;;;;0.10;0.10;;;10.10;99.90;;;;;;5076189;28;20174;-74
2021/05/25 00:21:52;;;;;;;0.88;0.52;;;10.10;99.90;;;;;;5076085;28;20085;-74
2021/05/25 00:24:17;;;;;;;0.20;0.20;;;10.10;99.90;;;;;;5094289;28;20032;-74
2021/05/25 00:26:43;;;;;;;0.30;0.30;;;9.90;99.90;;;;;;5076112;28;20035;-73
2021/05/25 00:29:09;;;;;;;0.68;0.68;;;9.90;99.90;;;;;;5076040;28;20028;-74
2021/05/25 00:31:35;;;;;;;0.20;0.20;;;10.00;99.90;;;;;;5094036;28;20024;-73
2021/05/25 00:34:00;;;;;;;0.10;0.10;;;9.90;99.90;;;;;;5094010;28;20099;-72
2021/05/25 00:36:27;;;;;;;0.50;0.50;;;10.00;99.90;;;;;;5094004;28;20439;-74
2021/05/25 00:38:53;;;;;;;0.17;0.17;;;10.10;99.90;;;;;;5076011;28;20521;-74
2021/05/25 00:41:19;;;;;;;0.57;0.57;;;10.10;99.90;;;;;;5093871;28;20012;-73
2021/05/25 00:43:45;;;;;;;0.55;0.38;;;10.10;99.90;;;;;;5075788;28;20024;-73
2021/05/25 00:46:11;;;;;;;0.90;0.85;;;9.70;99.90;;;;;;5075480;28;20031;-72
2021/05/25 00:48:36;;;;;;;0.17;0.17;;;9.60;99.90;;;;;;5093854;28;20086;-73
2021/05/25 00:51:04;;;;;;;0.20;0.20;;;9.50;99.90;;;;;;5075428;28;20111;-74
2021/05/25 00:53:30;;;;;;;0.30;0.30;;;9.40;99.90;;;;;;5093794;28;20024;-73
2021/05/25 00:55:56;;;;;;;0.20;0.20;;;9.30;99.90;;;;;;5075300;28;20032;-73
2021/05/25 00:58:23;;;;;;;0.20;0.20;;;9.20;99.90;;;;;;5075321;28;20024;-73
2021/05/25 01:00:49;;;;;;;0.40;0.40;;;9.20;99.90;;;;;;5075188;28;20074;-74
2021/05/25 01:03:20;;;;;;;0.40;0.40;;;9.30;99.90;;;;;;5093516;28;20020;-73
2021/05/25 01:05:47;;;;;;;0.20;0.20;;;9.10;99.90;;;;;;5093255;28;20032;-73
2021/05/25 01:08:14;;;;;;;0.15;0.15;;;9.10;99.90;;;;;;5075333;28;20024;-73
2021/05/25 01:10:45;;;;;;;0.20;0.20;;;9.10;99.90;;;;;;5074893;28;20024;-73
2021/05/25 01:13:14;;;;;;;0.20;0.20;;;9.10;99.90;;;;;;5093327;28;20024;-73
2021/05/25 01:15:41;;;;;;;0.20;0.20;;;9.10;99.90;;;;;;5074898;28;20120;-73
2021/05/25 01:18:08;;;;;;;3.35;0.65;;;9.00;99.90;;;;;;5074987;28;20430;-74
2021/05/25 01:20:36;;;;;;;1.50;0.60;;;8.80;99.90;;;;;;5075013;28;20024;-73
2021/05/25 01:23:03;;;;;;;0.15;0.15;;;8.50;99.90;;;;;;5074215;28;20062;-72
2021/05/25 01:25:28;;;;;;;0.20;0.20;;;8.50;99.90;;;;;;5093232;28;20471;-73
2021/05/25 01:28:01;;;;;;;1.85;0.32;;;8.60;99.90;;;;;;5092861;28;20108;-74
2021/05/25 01:30:30;;;;;;;0.20;0.20;;;8.50;99.90;;;;;;5074843;28;20412;-73
2021/05/25 01:32:57;;;;;;;0.22;0.22;;;8.60;99.90;;;;;;5092969;28;20077;-73
2021/05/25 01:35:24;;;;;;;0.30;0.30;;;8.60;99.90;;;;;;5092495;28;20047;-73
2021/05/25 01:37:50;;;;;;;0.20;0.20;;;8.60;99.90;;;;;;5074508;28;20027;-73
2021/05/25 01:40:17;;;;;;;0.20;0.20;;;8.70;99.90;;;;;;5092669;28;20016;-73
2021/05/25 01:42:43;;;;;;;0.25;0.25;;;8.70;99.90;;;;;;5074535;28;20028;-73
2021/05/25 01:45:18;;;;;;;0.20;0.20;;;8.60;99.90;;;;;;5092751;28;20028;-73
2021/05/25 01:47:44;;;;;;;2.08;0.30;;;8.60;99.90;;;;;;5057756;28;20044;-73
2021/05/25 01:50:16;;;;;;;0.20;0.20;;;8.60;99.90;;;;;;5092497;28;20115;-74
2021/05/25 01:52:48;;;;;;;;;;;8.70;99.90;;;;;;5074940;28;20070;-74
2021/05/25 01:55:25;;;;;;;0.43;0.43;;;8.70;99.90;;;;;;5074239;28;20338;-74
2021/05/25 01:57:51;;;;;;;0.10;0.10;;;8.60;99.90;;;;;;5074268;28;20020;-73
2021/05/25 02:00:17;;;;;;;1.45;0.40;;;8.60;99.90;;;;;;5074072;28;20140;-73
2021/05/25 02:02:43;;;;;;;0.22;0.22;;;8.60;99.90;;;;;;5074195;28;20016;-73
2021/05/25 02:05:09;;;;;;;0.20;0.20;;;8.70;99.90;;;;;;5074116;28;20487;-74
2021/05/25 02:07:35;;;;;;;0.20;0.20;;;8.70;99.90;;;;;;5057434;28;20436;-73
2021/05/25 02:10:00;;;;;;;0.10;0.10;;;8.80;99.90;;;;;;5057363;28;20030;-73
2021/05/25 02:12:26;;;;;;;0.17;0.17;;;8.80;99.90;;;;;;5092425;28;20383;-73
2021/05/25 02:14:52;;;;;;;0.10;0.10;;;8.70;99.90;;;;;;5092183;28;20042;-74
2021/05/25 02:17:17;;;;;;;0.25;0.25;;;8.60;99.90;;;;;;5074050;28;20028;-73
2021/05/25 02:19:43;;;;;;;0.30;0.30;;;8.60;99.90;;;;;;5073931;28;20024;-73
2021/05/25 02:22:10;;;;;;;1.85;0.28;;;8.50;99.90;;;;;;5074066;28;20027;-73
2021/05/25 02:24:36;;;;;;;0.38;0.38;;;8.50;99.90;;;;;;5074473;28;20027;-73
2021/05/25 02:27:02;;;;;;;1.38;0.40;;;8.50;99.90;;;;;;5091887;28;20108;-74
2021/05/25 02:29:28;;;;;;;21.05;1.58;;;8.50;99.90;;;;;;5073802;28;20024;-73
2021/05/25 02:31:54;;;;;;;1.45;0.50;;;8.40;99.90;;;;;;5073957;28;20081;-73
2021/05/25 02:34:20;;;;;;;0.17;0.17;;;8.40;99.90;;;;;;5092027;28;20028;-73
2021/05/25 02:36:45;;;;;;;0.20;0.20;;;8.50;99.90;;;;;;5073422;28;20024;-73
2021/05/25 02:39:11;;;;;;;0.47;0.32;;;8.50;99.90;;;;;;5073909;28;20095;-73
2021/05/25 02:41:37;;;;;;;0.40;0.40;;;8.50;99.90;;;;;;5091770;28;20533;-74
2021/05/25 02:44:03;;;;;;;1.52;0.60;;;8.40;99.90;;;;;;5073897;28;20028;-73
2021/05/25 02:46:28;;;;;;;0.40;0.40;;;8.50;99.90;;;;;;5091789;28;20028;-74
2021/05/25 02:48:54;;;;;;;0.40;0.40;;;8.40;99.90;;;;;;5091879;28;20062;-73
2021/05/25 02:51:20;;;;;;;0.35;0.30;;;8.40;99.90;;;;;;5091911;28;20024;-74
2021/05/25 02:53:46;;;;;;;0.20;0.20;;;8.30;99.90;;;;;;5091878;28;20020;-74
2021/05/25 02:56:11;;;;;;;0.20;0.20;;;8.30;99.90;;;;;;5091434;28;20028;-73
2021/05/25 02:58:37;;;;;;;0.25;0.25;;;8.30;99.90;;;;;;5073547;28;20062;-73
2021/05/25 03:01:03;;;;;;;0.30;0.30;;;8.30;99.90;;;;;;5091757;28;20119;-73
2021/05/25 03:03:29;;;;;;;0.20;0.20;;;8.20;99.90;;;;;;5091709;28;20031;-73
2021/05/25 03:05:54;;;;;;;0.20;0.20;;;8.20;99.90;;;;;;5099401;22;20044;-74
2021/05/25 03:08:20;;;;;;;1.13;0.30;;;8.20;99.90;;;;;;5070363;28;20078;-74
2021/05/25 03:10:48;;;;;;;0.52;0.52;;;8.10;99.90;;;;;;5071533;28;20078;-75
2021/05/25 03:13:14;;;;;;;0.40;0.40;;;8.10;99.90;;;;;;5053813;28;20028;-75
2021/05/25 03:15:45;;;;;;;0.20;0.20;;;8.10;99.90;;;;;;5071558;28;20426;-73
2021/05/25 03:18:12;;;;;;;0.30;0.30;;;8.10;99.90;;;;;;5053784;28;20038;-73
2021/05/25 03:20:39;;;;;;;0.20;0.20;;;8.00;99.90;;;;;;5071410;28;20115;-74
2021/05/25 03:23:07;;;;;;;0.32;0.32;;;8.00;99.90;;;;;;5053513;28;20021;-74
2021/05/25 03:25:33;;;;;;;3.40;0.40;;;8.00;99.90;;;;;;5071551;28;20232;-74
2021/05/25 03:27:59;;;;;;;0.30;0.30;;;8.00;99.90;;;;;;5071475;28;20033;-74
2021/05/25 03:30:27;;;;;;;1.02;0.40;;;8.00;99.90;;;;;;5071250;28;20100;-74
2021/05/25 03:32:53;;;;;;;0.75;0.75;;;8.10;99.90;;;;;;5071406;28;20403;-73
2021/05/25 03:35:21;;;;;;;0.10;0.10;;;8.30;99.90;;;;;;5071039;28;20078;-74
2021/05/25 03:37:48;;;;;;;2.83;0.30;;;8.50;99.90;;;;;;5071235;28;20020;-74
2021/05/25 03:40:16;;;;;;;0.20;0.20;;;8.50;99.90;;;;;;5053312;28;20055;-73
2021/05/25 03:42:46;;;;;;;0.20;0.20;;;8.40;99.90;;;;;;5071401;28;20068;-73
2021/05/25 03:45:12;;;;;;;0.20;0.20;;;8.40;99.90;;;;;;5072208;28;20028;-73
2021/05/25 03:47:38;;;;;;;0.20;0.20;;;8.40;99.90;;;;;;5056860;28;20391;-73
2021/05/25 03:50:08;;;;;;;0.20;0.20;;;8.60;99.90;;;;;;5074766;28;20040;-73
2021/05/25 03:52:38;;;;;;;0.13;0.13;;;8.50;99.90;;;;;;5074830;28;20037;-73
2021/05/25 03:55:15;;;;;;;0.10;0.10;;;8.40;99.90;;;;;;5074727;28;20028;-73
2021/05/25 04:00:08;;;;;;;0.20;0.20;;;8.40;99.90;;;;;;5074513;28;20096;-73
2021/05/25 04:02:34;;;;;;;0.20;0.20;;;8.50;99.90;;;;;;5074678;28;20021;-73
2021/05/25 04:05:01;;;;;;;2.05;1.95;;;8.70;99.90;;;;;;5074505;28;20541;-73
2021/05/25 04:07:27;;;;;;;0.10;0.10;;;8.90;99.90;;;;;;5074289;28;20093;-73
2021/05/25 04:09:52;;;;;;;0.20;0.20;;;9.10;99.90;;;;;;5056420;28;20024;-73
2021/05/25 04:12:18;;;;;;;0.15;0.15;;;9.20;99.90;;;;;;5074696;28;20112;-73
2021/05/25 04:14:44;;;;;;;0.20;0.20;;;9.30;99.90;;;;;;5074276;28;20031;-73
2021/05/25 04:17:10;;;;;;;0.20;0.20;;;9.40;99.90;;;;;;5056250;28;20431;-73
2021/05/25 04:19:36;;;;;;;0.20;0.20;;;9.40;99.90;;;;;;5074343;28;20088;-74
2021/05/25 04:22:02;;;;;;;0.20;0.20;;;9.40;99.90;;;;;;5056419;28;20435;-73
2021/05/25 04:24:27;;;;;;;0.20;0.20;;;9.40;99.90;;;;;;5074333;28;20059;-74
2021/05/25 04:26:53;;;;;;;0.20;0.20;;;9.50;99.90;;;;;;5074044;28;20032;-74
2021/05/25 04:29:19;;;;;;;0.20;0.20;;;9.40;99.90;;;;;;5074224;28;20020;-74
2021/05/25 04:31:45;;;;;;;0.10;0.10;;;9.40;99.90;;;;;;5056064;28;20052;-74
2021/05/25 04:34:10;;;;;;;0.10;0.10;;;9.40;99.90;;;;;;5073988;28;20102;-74
2021/05/25 04:36:36;;;;;;;0.20;0.20;;;9.40;99.90;;;;;;5055636;28;20388;-74
2021/05/25 04:39:03;;;;;;;0.20;0.20;;;9.40;99.90;;;;;;5055987;28;20032;-74
2021/05/25 04:41:29;;;;;;;0.10;0.10;;;9.50;99.90;;;;;;5055843;28;20025;-74
2021/05/25 04:43:55;;;;;;;0.10;0.10;;;9.20;99.90;;;;;;5073815;28;20047;-74
2021/05/25 04:46:20;;;;;;;0.17;0.17;;;8.80;99.90;;;;;;5055704;28;20507;-74
2021/05/25 04:48:46;;;;;;;0.15;0.15;;;8.90;99.90;;;;;;5055903;28;20020;-74
2021/05/25 04:51:12;;;;;;;0.13;0.13;;;9.10;99.90;;;;;;5073630;28;20024;-74
2021/05/25 04:53:38;;;;;;;0.13;0.13;;;9.30;99.90;;;;;;5055660;28;20024;-73
2021/05/25 04:56:04;;;;;;;0.10;0.10;;;9.40;99.90;;;;;;5072828;28;20028;-74
2021/05/25 04:58:29;;;;;;;0.20;0.20;;;9.40;99.90;;;;;;5073126;28;20028;-74
2021/05/25 05:00:55;;;;;;;0.20;0.20;;;9.40;99.90;;;;;;5073387;28;20028;-74
2021/05/25 05:03:21;;;;;;;0.10;0.10;;;9.50;99.90;;;;;;5073518;28;20150;-74
2021/05/25 05:05:47;;;;;;;0.20;0.20;;;9.30;99.90;;;;;;5073047;28;20492;-74
2021/05/25 05:08:12;;;;;;;0.20;0.20;;;9.30;99.90;;;;;;5073305;28;20024;-74
2021/05/25 05:10:39;;;;;;;0.20;0.20;;;9.40;99.90;;;;;;5073302;28;20127;-74
2021/05/25 05:13:08;;;;;;;0.45;0.15;;;9.50;99.90;;;;;;5073148;28;20078;-74
2021/05/25 05:15:35;;;;;;;0.20;0.20;;;9.50;99.90;;;;;;5055105;28;20032;-74
2021/05/25 05:18:00;;;;;;;0.20;0.20;;;9.30;99.90;;;;;;5073228;28;20379;-74
2021/05/25 05:20:27;;;;;;;0.20;0.20;;;9.10;99.90;;;;;;5072943;28;20074;-74
2021/05/25 05:22:53;;;;;;;0.30;0.30;;;8.70;99.90;;;;;;5072996;28;20103;-74
2021/05/25 05:25:19;;;;;;;1.30;0.95;;;8.60;99.90;;;;;;5055041;28;20052;-74
2021/05/25 05:27:45;;;;;;;0.30;0.30;;;8.50;99.90;;;;;;5072787;28;20675;-74
2021/05/25 05:30:11;;;;;;;0.30;0.30;;;8.40;99.90;;;;;;5072702;28;20082;-74
2021/05/25 05:32:37;;;;;;;2.33;0.60;;;8.30;99.90;;;;;;5054852;28;20047;-74
2021/05/25 05:35:05;;;;;;;0.15;0.15;;;8.20;99.90;;;;;;5072777;28;20457;-74
2021/05/25 05:37:31;;;;;;;0.20;0.20;;;8.00;99.90;;;;;;5072249;28;20032;-74
2021/05/25 05:39:57;;;;;;;0.20;0.20;;;8.00;99.90;;;;;;5072701;28;20111;-74
2021/05/25 05:42:23;;;;;;;1.45;0.68;;;8.00;99.90;;;;;;5071531;28;20107;-74
2021/05/25 05:44:49;;;;;;;0.30;0.30;;;8.00;99.90;;;;;;5078143;28;20495;-74
2021/05/25 05:47:15;;;;;;;0.20;0.20;;;8.00;99.90;;;;;;5079077;28;20107;-74
2021/05/25 05:49:40;;;;;;;0.20;0.20;;;8.10;99.90;;;;;;5071720;28;20063;-74
2021/05/25 05:52:06;;;;;;;0.50;0.50;;;8.20;99.90;;;;;;5072024;28;20077;-74
2021/05/25 05:54:33;;;;;;;0.47;0.47;;;8.10;99.90;;;;;;5072308;28;20089;-74
2021/05/25 05:56:58;;;;;;;1.77;1.05;;;7.90;99.90;;;;;;5054000;28;20025;-74
2021/05/25 05:59:24;;;;;;;0.20;0.20;;;7.90;99.90;;;;;;5072218;28;20016;-74
2021/05/25 06:01:50;;;;;;;1.13;0.52;;;8.00;99.90;;;;;;5081929;28;20015;-74
2021/05/25 06:04:16;;;;;;;0.15;0.15;;;8.10;99.90;;;;;;5054304;28;20086;-74
2021/05/25 06:06:41;;;;;;;0.20;0.20;;;8.20;99.90;;;;;;5071725;28;20029;-74
2021/05/25 06:09:07;;;;;;;0.20;0.20;;;8.20;99.90;;;;;;5071860;28;20043;-74
2021/05/25 06:11:33;;;;;;;0.40;0.40;;;8.20;99.90;;;;;;5072036;28;20021;-74
2021/05/25 06:13:59;;;;;;;0.20;0.20;;;8.40;99.90;;;;;;5071985;28;20021;-74
2021/05/25 06:16:25;;;;;;;0.20;0.20;;;8.60;99.90;;;;;;5071793;28;20021;-74
2021/05/25 06:18:51;;;;;;;0.20;0.20;;;8.50;99.90;;;;;;5052427;28;20384;-74
2021/05/25 06:21:16;;;;;;;0.20;0.20;;;8.40;99.90;;;;;;5075073;28;20035;-74
2021/05/25 06:23:42;;;;;;;0.32;0.32;;;8.50;99.90;;;;;;5088094;28;20460;-72
2021/05/25 06:26:08;;;;;;;0.20;0.20;;;8.50;99.90;;;;;;5054048;28;20020;-73
2021/05/25 06:28:34;;;;;;;0.17;0.17;;;8.70;99.90;;;;;;5071663;28;20179;-73
2021/05/25 06:31:00;;;;;;;0.10;0.10;;;8.90;99.90;;;;;;5053697;28;20031;-73
2021/05/25 06:33:27;;;;;;;1.10;1.10;;;8.90;99.90;;;;;;5053715;28;20024;-74
2021/05/25 06:35:53;;;;;;;1.10;0.30;;;9.10;99.90;;;;;;5071593;28;20059;-74
2021/05/25 06:38:19;;;;;;;0.17;0.17;;;9.00;99.90;;;;;;5075373;28;20476;-74
2021/05/25 06:40:45;;;;;;;0.10;0.10;;;9.00;99.90;;;;;;5069170;28;20051;-74
2021/05/25 06:43:11;;;;;;;0.25;0.25;;;9.30;99.90;;;;;;5053087;28;20480;-74
2021/05/25 06:45:37;;;;;;;0.17;0.17;;;9.40;99.90;;;;;;5072893;28;20242;-74
2021/05/25 06:48:03;;;;;;;4.25;1.05;;;9.50;99.90;;;;;;5068769;28;20016;-72
2021/05/25 06:50:29;;;;;;;0.20;0.20;;;9.50;99.90;;;;;;5051489;28;20025;-72
2021/05/25 06:52:54;;;;;;;0.20;0.20;;;9.60;99.90;;;;;;5068503;28;20039;-72
2021/05/25 06:55:21;;;;;;;6.57;1.17;;;9.60;99.90;;;;;;5069351;28;20388;-74
2021/05/25 06:57:47;;;;;;;0.20;0.20;;;9.60;99.90;;;;;;5034436;28;20017;-74
2021/05/25 07:00:14;;;;;;;0.10;0.10;;;9.60;99.90;;;;;;5070325;28;20078;-74
2021/05/25 07:02:43;;;;;;;0.20;0.20;;;9.70;99.90;;;;;;5053552;28;20395;-74
2021/05/25 07:05:09;;;;;;;0.20;0.20;;;9.80;99.90;;;;;;5052269;28;20024;-73
2021/05/25 07:07:36;;;;;;;0.20;0.20;;;10.00;99.90;;;;;;5071009;28;20037;-73
2021/05/25 07:10:04;;;;;;;0.13;0.13;;;10.30;99.90;;;;;;5035762;28;20083;-73
2021/05/25 07:12:29;;;;;;;0.57;0.57;;;10.10;99.90;;;;;;5070937;28;20050;-73
2021/05/25 07:14:55;;;;;;;0.93;0.73;;;9.90;99.90;;;;;;5052502;28;20450;-72
2021/05/25 07:17:21;;;;;;;0.20;0.20;;;9.70;99.90;;;;;;5070967;28;20452;-74
2021/05/25 07:19:47;;;;;;;0.10;0.10;;;9.70;99.90;;;;;;5054124;28;20056;-74
2021/05/25 07:22:12;;;;;;;0.30;0.30;;;9.70;99.90;;;;;;5056549;28;20028;-74
2021/05/25 07:24:39;;;;;;;0.77;0.60;;;9.80;99.90;;;;;;5072281;28;20028;-74
2021/05/25 07:27:05;;;;;;;0.30;0.30;;;9.70;99.90;;;;;;5073886;28;20116;-74
2021/05/25 07:29:31;;;;;;;0.20;0.20;;;9.50;99.90;;;;;;5074125;28;20107;-73
2021/05/25 07:31:57;;;;;;;8.38;1.50;;;9.80;99.90;;;;;;5073550;28;20100;-74
2021/05/25 07:34:23;;;;;;;1.55;1.45;;;9.90;99.90;;;;;;5073470;28;20056;-74
2021/05/25 07:36:48;;;;;;;0.20;0.20;;;9.70;99.90;;;;;;5073233;28;20025;-74
2021/05/25 07:39:17;;;;;;;0.30;0.30;;;9.80;99.90;;;;;;5055753;28;20066;-74
2021/05/25 07:41:43;;;;;;;0.82;0.55;;;9.70;99.90;;;;;;5041222;28;20029;-74
2021/05/25 07:44:09;;;;;;;0.20;0.20;;;9.60;99.90;;;;;;5055432;28;20016;-74
2021/05/25 07:46:35;;;;;;;1.67;1.25;;;9.60;99.90;;;;;;5073192;28;20104;-73
2021/05/25 07:49:01;;;;;;;0.10;0.10;;;9.50;99.90;;;;;;5054573;28;20027;-74
2021/05/25 07:51:27;;;;;;;0.10;0.10;;;9.50;99.90;;;;;;5070321;28;20048;-74
2021/05/25 07:53:53;;;;;;;0.20;0.20;;;9.50;99.90;;;;;;5072518;28;20039;-73
2021/05/25 07:56:19;;;;;;;0.20;0.20;;;9.60;99.90;;;;;;5052009;28;20029;-74
2021/05/25 07:58:45;;;;;;;0.20;0.20;;;9.60;99.90;;;;;;5073471;28;20095;-73
2021/05/25 08:01:11;;;;;;;0.20;0.20;;;9.70;99.90;;;;;;5074106;28;20153;-73
2021/05/25 08:03:36;;;;;;;0.28;0.28;;;10.00;99.90;;;;;;5055094;28;20036;-73
2021/05/25 08:06:03;;;;;;;2.67;0.82;;;10.20;99.90;;;;;;5075559;28;20033;-73
2021/05/25 08:08:32;;;;;;;0.10;0.10;;;10.10;99.90;;;;;;5055780;28;20024;-73
2021/05/25 08:10:59;;;;;;;0.60;0.60;;;10.10;99.90;;;;;;5063834;28;20052;-73
2021/05/25 08:13:25;;;;;;;0.10;0.10;;;10.00;99.90;;;;;;5093956;28;20028;-73
2021/05/25 08:15:52;;;;;;;0.98;0.93;;;10.10;99.90;;;;;;5080121;28;20103;-73
2021/05/25 08:21:04;;;;;;;1.13;0.32;;;9.90;99.90;;;;;;5073465;28;20012;-73
2021/05/25 08:23:30;;;;;;;5.40;0.75;;;9.90;99.90;;;;;;5073575;28;20021;-73
2021/05/25 08:25:56;;;;;;;0.15;0.15;;;9.80;99.90;;;;;;5054971;28;20027;-73
2021/05/25 08:28:22;;;;;;;3.58;0.85;;;10.00;99.90;;;;;;5073480;28;20021;-73
2021/05/25 08:30:48;;;;;;;2.28;0.43;;;10.00;99.90;;;;;;5056968;28;20063;-75
2021/05/25 08:33:15;;;;;;;13.05;0.85;;;9.90;99.90;;;;;;5055220;28;20029;-74
2021/05/25 08:35:41;;;;;;;0.10;0.10;;;10.00;99.90;;;;;;5072919;28;20099;-74
2021/05/25 08:38:09;;;;;;;0.77;0.77;;;9.90;99.30;;;;;;5073414;28;20379;-75
2021/05/25 08:40:37;;;;;;;0.60;0.60;;;9.90;98.30;;;;;;5039495;28;20414;-74
2021/05/25 08:43:04;;;;;;;2.53;0.68;;;9.80;97.10;;;;;;5073407;28;20036;-75
2021/05/25 08:45:30;;;;;;;0.93;0.57;;;9.80;97.50;;;;;;5074946;28;20025;-74
2021/05/25 08:47:57;;;;;;;0.20;0.20;;;9.80;97.20;;;;;;5088488;28;20024;-74
2021/05/25 08:50:27;;;;;;;1.38;1.30;;;9.70;97.30;;;;;;5050253;28;20032;-74
2021/05/25 08:53:00;;;;;;;0.28;0.28;;;9.70;97.70;;;;;;5055263;28;20428;-75
2021/05/25 08:55:28;;;;;;;2.45;1.00;;;9.70;97.90;;;;;;5072668;28;20025;-73
2021/05/25 08:57:54;;;;;;;0.10;0.10;;;9.70;97.50;;;;;;5072954;28;20040;-73
2021/05/25 09:00:20;;;;;;;0.30;0.30;;;9.70;99.30;;;;;;5054396;28;20027;-73
2021/05/25 09:02:46;;;;;;;0.20;0.20;;;9.80;98.40;;;;;;5071815;28;20484;-73
2021/05/25 09:05:18;;;;;;;0.20;0.20;;;9.90;98.40;;;;;;5055090;28;20040;-73
2021/05/25 09:07:59;;;;;;;1.63;0.65;;;10.00;97.60;;;;;;5092328;28;20069;-73
2021/05/25 09:10:47;;;;;;;0.20;0.20;;;10.10;95.90;;;;;;5067828;28;20082;-73
2021/05/25 09:13:24;;;;;;;0.50;0.50;;;10.50;96.60;;;;;;5054954;28;20116;-72
2021/05/25 09:15:55;;;;;;;0.30;0.30;;;10.50;93.00;;;;;;5072354;28;20082;-73
2021/05/25 09:18:25;;;;;;;0.73;0.50;;;10.70;93.30;;;;;;5072647;28;20020;-73
2021/05/25 09:20:53;;;;;;;0.60;0.60;;;10.80;93.10;;;;;;5054583;28;20035;-73
2021/05/25 09:23:32;;;;;;;0.73;0.50;;;10.60;93.90;;;;;;5072547;28;20052;-73
2021/05/25 09:26:05;;;;;;;0.65;0.65;;;10.40;91.70;;;;;;5072197;28;20021;-73
2021/05/25 09:28:32;;;;;;;0.20;0.20;;;10.40;93.50;;;;;;5072589;28;20021;-70
2021/05/25 09:30:58;;;;;;;0.55;0.40;;;10.40;95.80;;;;;;5073141;28;20028;-73
2021/05/25 09:33:24;;;;;;;0.25;0.25;;;10.50;95.10;;;;;;5072245;28;20396;-71
2021/05/25 09:35:50;;;;;;;0.50;0.50;;;11.20;93.40;;;;;;5055757;28;20500;-72
2021/05/25 09:38:29;;;;;;;0.93;0.55;;;11.60;91.90;;;;;;5092883;28;20356;-71
2021/05/25 09:41:00;;;;;;;1.85;0.43;;;12.00;87.30;;;;;;5086563;28;20024;-71
2021/05/25 09:43:28;;;;;;;0.50;0.38;;;12.40;83.80;;;;;;5091865;28;20103;-72
2021/05/25 09:46:00;;;;;;;0.30;0.30;;;12.90;81.70;;;;;;5074265;28;20028;-72
2021/05/25 09:48:31;;;;;;;1.27;0.57;;;13.10;77.40;;;;;;5057779;28;20055;-71
2021/05/25 09:50:59;;;;;;;0.65;0.52;;;13.30;72.90;;;;;;5073313;28;20480;-72
2021/05/25 09:53:28;;;;;;;0.10;0.10;;;13.80;71.70;;;;;;5092298;28;20020;-72
2021/05/25 09:55:59;;;;;;;0.30;0.30;;;13.80;68.00;;;;;;5091908;28;20020;-71
2021/05/25 09:58:34;;;;;;;0.10;0.10;;;14.40;67.00;;;;;;5074073;28;20030;-71
2021/05/25 10:01:00;;;;;;;0.20;0.20;;;14.80;65.10;;;;;;5056828;28;20027;-72
2021/05/25 10:03:27;;;;;;;3.28;0.55;;;14.10;64.30;;;;;;5055124;28;20021;-73
2021/05/25 10:05:54;;;;;;;0.25;0.25;;;14.10;62.90;;;;;;5070526;28;20037;-73
2021/05/25 10:08:22;;;;;;;1.05;0.38;;;14.20;64.30;;;;;;5069016;28;20036;-71
2021/05/25 10:10:49;;;;;;;2.08;0.30;;;14.10;62.00;;;;;;5066020;28;20082;-73
2021/05/25 10:13:15;;;;;;;0.70;0.70;;;13.90;62.10;;;;;;5067891;28;20012;-73
2021/05/25 10:15:48;;;;;;;0.10;0.10;;;14.10;64.70;;;;;;5070709;28;20403;-74
2021/05/25 10:20:41;;;;;;;1.10;0.73;;;14.50;63.70;;;;;;5070823;28;20469;-74
2021/05/25 10:23:08;;;;;;;0.40;0.40;;;14.50;63.10;;;;;;5068800;28;20047;-73
2021/05/25 10:25:36;;;;;;;0.10;0.10;;;14.60;62.80;;;;;;5053065;28;20037;-73
2021/05/25 10:28:10;;;;;;;0.20;0.20;;;14.90;62.40;;;;;;5067965;28;20115;-74
2021/05/25 10:30:49;;;;;;;2.83;0.73;;;14.90;58.60;;;;;;5068649;28;20025;-73
2021/05/25 10:33:21;;;;;;;0.52;0.40;;;15.10;56.50;;;;;;5068618;28;20029;-73
2021/05/25 10:36:00;;;;;;;0.17;0.17;;;15.40;56.10;;;;;;5068920;28;20024;-73
2021/05/25 10:38:26;;;;;;;1.35;0.25;;;15.60;56.10;;;;;;5068651;28;20067;-74
2021/05/25 10:40:56;;;;;;;5.18;0.57;;;15.30;53.80;;;;;;5053279;28;20431;-73
2021/05/25 10:43:42;;;;;;;1.35;0.50;;;15.30;55.00;;;;;;5068712;28;20403;-73
2021/05/25 10:46:11;;;;;;;1.15;0.47;;;15.00;53.90;;;;;;5069941;28;20476;-73
2021/05/25 10:49:09;;;;;;;3.90;0.47;;;15.00;54.40;;;;;;5048043;28;20482;-73
2021/05/25 10:51:51;;;;;;;0.20;0.20;;;15.20;52.70;;;;;;5065440;28;20720;-73
2021/05/25 10:54:42;;;;;;;2.17;0.65;;;15.20;53.70;;;;;;5070806;28;20107;-72
2021/05/25 10:57:40;;;;;;;1.25;0.68;;;15.00;53.00;;;;;;5075773;28;20059;-73
2021/05/25 11:00:14;;;;;;;0.22;0.22;;;15.10;53.00;;;;;;5069023;28;20024;-73
2021/05/25 11:02:48;;;;;;;0.50;0.50;;;15.30;54.00;;;;;;5077765;28;20039;-73
2021/05/25 11:05:32;;;;;;;3.55;0.70;;;15.50;53.10;;;;;;5074465;28;20060;-73
2021/05/25 11:08:07;;;;;;;4.15;0.20;;;15.60;51.40;;;;;;5071838;28;20024;-72
2021/05/25 11:10:37;;;;;;;0.63;0.63;;;15.30;51.80;;;;;;5076191;28;20039;-72
2021/05/25 11:13:18;;;;;;;1.15;0.77;;;15.20;52.10;;;;;;5074266;28;20027;-74
2021/05/25 11:16:02;;;;;;;0.30;0.30;;;15.10;51.80;;;;;;5074182;28;20434;-74
2021/05/25 11:21:38;;;;;;;0.13;0.13;;;15.70;51.80;;;;;;5029530;28;20182;-74
2021/05/25 11:24:34;;;;;;;0.10;0.10;;;16.00;49.80;;;;;;5069671;28;20043;-74
2021/05/25 11:27:08;;;;;;;0.90;0.90;;;15.90;50.30;;;;;;5072160;28;20077;-74
2021/05/25 11:30:03;;;;;;;0.75;0.30;;;15.80;48.20;;;;;;5073908;28;20025;-74
2021/05/25 11:32:51;;;;;;;0.30;0.30;;;15.70;47.00;;;;;;5073838;28;20468;-74
2021/05/25 11:35:28;;;;;;;3.03;0.52;;;15.80;47.90;;;;;;5073792;28;20496;-74
2021/05/25 11:37:58;;;;;;;0.50;0.50;;;15.50;48.20;;;;;;5073406;28;20024;-73
2021/05/25 11:40:36;;;;;;;8.68;0.60;;;15.20;49.20;;;;;;5051243;28;20032;-74
2021/05/25 11:43:03;;;;;;;1.20;0.75;;;15.50;49.20;;;;;;5070397;28;20017;-74
2021/05/25 11:45:30;;;;;;;0.85;0.20;;;15.50;49.90;;;;;;5073715;28;20052;-75
2021/05/25 11:48:06;;;;;;;0.73;0.45;;;15.50;50.60;;;;;;5072976;28;20025;-75
2021/05/25 11:50:43;;;;;;;0.20;0.20;;;15.30;49.80;;;;;;5070792;28;20028;-75
2021/05/25 11:53:09;;;;;;;0.10;0.10;;;15.60;51.00;;;;;;5053184;28;20033;-75
2021/05/25 11:55:36;;;;;;;4.50;0.80;;;15.80;50.90;;;;;;5053216;28;20035;-75
2021/05/25 11:58:05;;;;;;;0.17;0.17;;;16.20;49.40;;;;;;5071879;28;20107;-74
2021/05/25 12:00:36;;;;;;;1.55;0.28;;;15.80;49.90;;;;;;5054813;28;20060;-75
2021/05/25 12:03:05;;;;;;;0.30;0.30;;;15.50;49.50;;;;;;5072989;28;20028;-74
2021/05/25 12:05:33;;;;;;;0.13;0.13;;;15.90;50.50;;;;;;5068101;28;20020;-72
2021/05/25 12:08:10;;;;;;;0.30;0.30;;;16.00;50.80;;;;;;5073897;28;20025;-70
2021/05/25 12:10:44;;;;;;;0.38;0.25;;;16.20;49.20;;;;;;5073855;28;20103;-71
2021/05/25 12:13:12;;;;;;;1.65;0.38;;;15.80;47.20;;;;;;5063773;28;20025;-72
2021/05/25 12:15:49;;;;;;;0.47;0.20;;;15.50;47.80;;;;;;5073772;28;20021;-71
2021/05/25 12:18:20;;;;;;;2.05;0.57;;;15.60;48.30;;;;;;5084908;28;20448;-70
2021/05/25 12:20:55;;;;;;;3.33;0.65;;;15.40;47.20;;;;;;5087782;28;20047;-71
2021/05/25 12:23:26;;;;;;;6.05;0.40;;;15.30;47.20;;;;;;5085552;28;20024;-70
2021/05/25 12:25:54;;;;;;;1.20;0.40;;;15.50;47.30;;;;;;5094011;28;20016;-72
2021/05/25 12:28:31;;;;;;;1.40;0.90;;;15.20;46.10;;;;;;5082097;28;20025;-71
2021/05/25 12:30:58;;;;;;;0.65;0.20;;;15.30;46.80;;;;;;5073597;28;20360;-71
2021/05/25 12:33:29;;;;;;;0.40;0.25;;;15.30;45.40;;;;;;5073343;28;20056;-72
2021/05/25 12:36:14;;;;;;;0.93;0.20;;;15.10;46.90;;;;;;5073466;28;20051;-71
2021/05/25 12:38:52;;;;;;;2.80;0.60;;;15.00;46.60;;;;;;5073484;28;20048;-72
2021/05/25 12:41:18;;;;;;;0.77;0.77;;;15.40;46.90;;;;;;5068823;28;20365;-72
2021/05/25 12:43:44;;;;;;;2.47;1.10;;;15.30;45.70;;;;;;5087169;28;20115;-71
2021/05/25 12:46:11;;;;;;;0.10;0.10;;;15.40;45.90;;;;;;5066999;28;20392;-72
2021/05/25 12:48:41;;;;;;;11.23;0.60;;;15.40;46.50;;;;;;5076762;28;20074;-72
2021/05/25 12:51:11;;;;;;;1.42;0.25;;;15.20;44.50;;;;;;5073957;28;20495;-72
2021/05/25 12:53:58;;;;;;;0.73;0.32;;;15.50;45.40;;;;;;5072962;28;20085;-71
2021/05/25 12:56:25;;;;;;;0.20;0.20;;;15.30;44.80;;;;;;5072157;28;20031;-73
2021/05/25 12:58:54;;;;;;;3.35;0.50;;;15.20;45.20;;;;;;5071435;28;20039;-74
2021/05/25 13:01:34;;;;;;;0.70;0.20;;;15.20;44.70;;;;;;5072406;28;20075;-73
2021/05/25 13:04:02;;;;;;;0.22;0.22;;;15.20;44.60;;;;;;5071895;28;20078;-74
2021/05/25 13:06:32;;;;;;;0.52;0.28;;;15.20;45.60;;;;;;5071876;28;20043;-74
2021/05/25 13:09:34;;;;;;;0.10;0.10;;;15.20;47.00;;;;;;5071628;28;20057;-74
2021/05/25 13:12:12;;;;;;;0.20;0.20;;;15.40;48.10;;;;;;5054012;28;20077;-74